Time;durP1;ratioP1;P1;durP2;ratioP2;P2;SDS_P1;SDS_P2;PMS_P1;PMS_P2;Temp;Humidity;BMP_temperature;BMP_pressure;BME280_temperature;BME280_humidity;BME280_pressure;Samples;Min_cycle;Max_cycle;Signal;HPM_P1;HPM_P2
2021/08/29 00:01:34;;;;;;;4.90;2.95;;;;;;;16.77;62.69;99391.62;1698901;83;21530;-42
2021/08/29 00:04:00;;;;;;;4.33;2.70;;;;;;;16.79;62.10;99387.90;1693185;83;21490;-42
2021/08/29 00:06:26;;;;;;;7.53;2.77;;;;;;;16.75;61.88;99389.10;1692110;83;21027;-42
2021/08/29 00:08:53;;;;;;;10.25;2.50;;;;;;;16.68;61.74;99389.91;1703467;83;21116;-42
2021/08/29 00:11:21;;;;;;;5.08;4.20;;;;;;;16.63;61.30;99395.80;1692698;83;21912;-42
2021/08/29 00:13:47;;;;;;;9.30;4.50;;;;;;;16.57;61.25;99390.52;1697587;83;21027;-41
2021/08/29 00:16:14;;;;;;;6.53;4.90;;;;;;;16.49;61.71;99393.10;1698073;83;21064;-42
2021/08/29 00:18:41;;;;;;;11.55;5.47;;;;;;;16.44;61.78;99393.52;1694155;83;21044;-42
2021/08/29 00:21:08;;;;;;;8.05;5.10;;;;;;;16.39;61.66;99381.61;1692767;83;21040;-42
2021/08/29 00:23:35;;;;;;;10.10;6.12;;;;;;;16.32;61.88;99370.09;1692727;83;21570;-42
2021/08/29 00:26:01;;;;;;;10.20;6.00;;;;;;;16.26;62.24;99365.45;1690453;82;20952;-42
2021/08/29 00:28:27;;;;;;;8.98;5.65;;;;;;;16.19;62.59;99375.05;1736820;80;21032;-41
2021/08/29 00:30:54;;;;;;;9.50;5.95;;;;;;;16.21;62.68;99372.12;1751340;81;21001;-42
2021/08/29 00:33:22;;;;;;;8.45;5.85;;;;;;;16.24;62.88;99372.68;1715524;83;21028;-42
2021/08/29 00:35:52;;;;;;;9.58;6.67;;;;;;;16.26;63.09;99382.65;1673216;84;21171;-42
2021/08/29 00:38:20;;;;;;;9.05;6.80;;;;;;;16.28;63.43;99395.91;1752355;80;20952;-42
2021/08/29 00:40:49;;;;;;;8.85;6.42;;;;;;;16.28;63.25;99412.33;1750825;80;21017;-42
2021/08/29 00:43:16;;;;;;;11.38;7.25;;;;;;;16.30;63.44;99411.36;1764697;80;21096;-42
2021/08/29 00:45:43;;;;;;;9.98;7.42;;;;;;;16.32;63.68;99411.72;1738055;80;22043;-42
2021/08/29 00:48:10;;;;;;;9.98;7.25;;;;;;;16.36;63.60;99402.33;1753943;80;21848;-41
2021/08/29 00:50:40;;;;;;;10.63;7.58;;;;;;;16.44;63.39;99388.04;1779765;80;21009;-41
2021/08/29 00:53:07;;;;;;;12.28;7.28;;;;;;;16.49;63.44;99378.05;1747159;81;21526;-42
2021/08/29 00:55:35;;;;;;;10.48;7.12;;;;;;;16.51;63.66;99380.56;1746877;80;20965;-42
2021/08/29 00:58:03;;;;;;;9.37;7.30;;;;;;;16.50;63.75;99383.72;1721170;82;21801;-42
2021/08/29 01:00:33;;;;;;;10.15;7.90;;;;;;;16.50;63.93;99385.88;1695211;83;21079;-42
2021/08/29 01:03:00;;;;;;;9.53;7.72;;;;;;;16.52;63.85;99379.98;1778012;80;21491;-42
2021/08/29 01:05:40;;;;;;;12.90;8.35;;;;;;;16.52;63.74;99379.98;1715142;83;21626;-42
2021/08/29 01:08:12;;;;;;;8.50;7.35;;;;;;;16.50;63.74;99380.40;1699617;83;21096;-42
2021/08/29 01:10:54;;;;;;;9.70;7.50;;;;;;;16.52;64.03;99384.09;1692965;83;20921;-42
2021/08/29 01:13:37;;;;;;;9.05;7.22;;;;;;;16.58;64.05;99383.89;1751064;80;21827;-42
2021/08/29 04:31:31;;;;;;;9.85;8.35;;;;;;;17.32;64.73;99324.51;1737888;80;20962;-42
2021/08/29 04:34:06;;;;;;;9.18;7.35;;;;;;;17.38;64.58;99320.13;1693968;82;21088;-42
2021/08/29 04:36:38;;;;;;;9.98;8.08;;;;;;;17.46;64.59;99324.96;1733183;80;21053;-42
2021/08/29 04:39:07;;;;;;;10.23;7.70;;;;;;;17.58;64.34;99326.40;1741698;80;21176;-42
2021/08/29 04:41:36;;;;;;;11.15;8.43;;;;;;;17.66;64.15;99327.34;1715621;82;21024;-42
2021/08/29 04:44:05;;;;;;;11.12;8.25;;;;;;;17.71;64.12;99321.41;1718737;82;20929;-42
2021/08/29 04:46:34;;;;;;;13.48;8.45;;;;;;;17.79;64.02;99318.77;1718357;82;21001;-42
2021/08/29 04:49:01;;;;;;;8.98;7.85;;;;;;;17.86;64.12;99317.14;1743514;80;21045;-42
2021/08/29 04:51:29;;;;;;;10.65;7.67;;;;;;;17.89;63.98;99312.98;1736241;82;21808;-42
2021/08/29 04:53:58;;;;;;;8.53;6.95;;;;;;;17.90;63.75;99315.91;1701591;82;22049;-43
2021/08/29 04:56:25;;;;;;;8.83;6.97;;;;;;;17.91;63.85;99318.82;1751064;80;21017;-43
2021/08/29 04:58:53;;;;;;;8.33;7.30;;;;;;;18.00;63.65;99316.98;1734952;80;21042;-42
2021/08/29 05:01:21;;;;;;;10.28;7.95;;;;;;;18.03;63.45;99315.55;1727896;82;21049;-42
2021/08/29 05:03:48;;;;;;;9.25;7.35;;;;;;;18.04;63.47;99311.63;1682149;84;21164;-43
2021/08/29 05:06:15;;;;;;;9.38;7.37;;;;;;;18.07;63.52;99312.77;1678389;84;20941;-42
2021/08/29 05:08:42;;;;;;;10.85;8.08;;;;;;;18.08;63.59;99319.81;1716998;80;21099;-42
2021/08/29 05:11:09;;;;;;;10.63;7.80;;;;;;;18.09;63.57;99322.16;1737734;80;21018;-42
2021/08/29 05:13:37;;;;;;;9.55;7.42;;;;;;;18.10;63.67;99309.22;1749813;81;21068;-42
2021/08/29 05:16:05;;;;;;;7.70;6.80;;;;;;;18.09;63.73;99311.19;1730574;80;21247;-43
2021/08/29 05:18:33;;;;;;;9.25;7.40;;;;;;;18.17;63.72;99314.01;1713379;83;21017;-43
2021/08/29 05:21:08;;;;;;;9.43;6.83;;;;;;;18.22;63.64;99305.91;1698932;83;21559;-43
2021/08/29 05:23:52;;;;;;;10.93;7.45;;;;;;;18.26;63.84;99299.78;1752931;80;21084;-42
2021/08/29 05:26:33;;;;;;;9.85;7.03;;;;;;;18.30;63.70;99297.02;1698331;83;21005;-43
2021/08/29 05:29:01;;;;;;;11.08;7.35;;;;;;;18.36;63.61;99290.63;1744571;81;21797;-42
2021/08/29 05:31:28;;;;;;;9.15;7.00;;;;;;;18.15;63.50;99244.28;1743083;81;20957;-42
2021/08/29 05:33:55;;;;;;;9.45;6.58;;;;;;;18.45;63.17;99284.03;1738115;81;21865;-43
2021/08/29 05:36:22;;;;;;;8.90;6.25;;;;;;;18.47;63.18;99291.27;1703992;80;20945;-43
2021/08/29 05:38:49;;;;;;;7.10;5.87;;;;;;;18.53;63.08;99296.52;1712512;82;21036;-43
2021/08/29 05:41:24;;;;;;;10.15;6.20;;;;;;;18.59;62.97;99297.58;1731939;82;21139;-43
2021/08/29 05:43:53;;;;;;;8.58;6.67;;;;;;;18.65;63.11;99292.41;1697254;81;20953;-42
2021/08/29 05:46:29;;;;;;;9.03;6.45;;;;;;;18.74;63.09;99297.37;1704457;83;21086;-42
2021/08/29 05:48:56;;;;;;;10.35;6.12;;;;;;;18.79;62.84;99299.64;1701215;83;21301;-43
2021/08/29 05:51:22;;;;;;;7.60;6.10;;;;;;;18.80;62.71;99291.00;1696987;83;21070;-42
2021/08/29 05:53:49;;;;;;;8.23;5.20;;;;;;;18.85;62.80;99288.38;1689440;84;21100;-43
2021/08/29 05:56:16;;;;;;;6.78;5.22;;;;;;;18.93;62.48;99280.97;1763581;80;21502;-43
2021/08/29 05:58:43;;;;;;;6.65;5.12;;;;;;;19.01;62.05;99277.53;1746812;80;21065;-43
2021/08/29 06:01:14;;;;;;;7.97;5.33;;;;;;;19.05;61.60;99267.25;1743869;80;20969;-42
2021/08/29 06:03:43;;;;;;;6.33;4.97;;;;;;;19.07;61.19;99271.74;1731959;80;21614;-42
2021/08/29 06:06:11;;;;;;;6.75;4.72;;;;;;;19.05;60.64;99270.00;1699948;83;21161;-42
2021/08/29 06:08:40;;;;;;;8.90;4.95;;;;;;;19.03;60.67;99263.53;1763841;80;20969;-43
2021/08/29 06:11:08;;;;;;;6.40;4.70;;;;;;;19.02;60.57;99268.09;1682256;82;20954;-43
2021/08/29 06:13:36;;;;;;;7.25;4.78;;;;;;;18.99;60.66;99271.06;1754823;80;21001;-42
2021/08/29 06:16:05;;;;;;;5.45;4.65;;;;;;;18.99;60.55;99273.81;1745051;80;21032;-43
2021/08/29 06:18:32;;;;;;;8.20;4.62;;;;;;;18.98;60.55;99275.59;1741983;81;21779;-43
2021/08/29 06:20:58;;;;;;;5.90;4.47;;;;;;;18.99;60.55;99270.28;1746865;80;21017;-43
2021/08/29 06:23:25;;;;;;;6.95;4.10;;;;;;;19.02;60.46;99258.48;1739410;81;20938;-43
2021/08/29 06:25:54;;;;;;;5.23;3.90;;;;;;;19.04;60.89;99259.59;1752612;80;21057;-43
2021/08/29 06:28:40;;;;;;;4.67;4.00;;;;;;;19.11;60.67;99258.71;1750339;80;21062;-43
2021/08/29 06:31:25;;;;;;;5.92;4.20;;;;;;;19.16;59.99;99251.95;1737617;81;21142;-43
2021/08/29 06:34:11;;;;;;;5.37;4.10;;;;;;;19.17;59.90;99252.89;1737880;81;21019;-43
2021/08/29 06:36:39;;;;;;;9.95;4.53;;;;;;;19.18;59.79;99244.83;1745338;80;21046;-43
2021/08/29 06:39:06;;;;;;;5.42;3.72;;;;;;;19.20;59.87;99241.08;1743740;81;21101;-43
2021/08/29 06:41:33;;;;;;;4.90;4.03;;;;;;;19.20;59.64;99240.30;1742396;80;21057;-43
2021/08/29 06:44:01;;;;;;;6.15;4.17;;;;;;;19.17;59.64;99235.03;1731744;80;21838;-43
2021/08/29 06:46:36;;;;;;;6.53;4.30;;;;;;;19.19;59.72;99234.62;1685653;81;21575;-43
2021/08/29 06:49:20;;;;;;;6.92;4.70;;;;;;;19.20;59.72;99241.67;1717873;82;20996;-43
2021/08/29 06:51:54;;;;;;;5.87;4.30;;;;;;;19.18;60.08;99239.93;1701452;80;20997;-43
2021/08/29 06:54:38;;;;;;;5.80;4.05;;;;;;;19.17;60.52;99244.64;1740497;80;21527;-43
2021/08/29 06:57:25;;;;;;;5.90;4.75;;;;;;;19.20;61.13;99234.20;1739405;80;21797;-43
2021/08/29 06:59:52;;;;;;;6.65;4.55;;;;;;;19.28;60.89;99243.87;1699278;83;21042;-42
2021/08/29 07:02:21;;;;;;;7.22;4.58;;;;;;;19.35;60.83;99242.97;1689136;83;20998;-43
2021/08/29 07:04:48;;;;;;;4.87;3.95;;;;;;;19.35;60.44;99239.63;1703566;84;21029;-43
2021/08/29 07:07:15;;;;;;;7.60;4.40;;;;;;;19.38;60.51;99238.77;1738320;81;20987;-43
2021/08/29 07:10:04;;;;;;;6.78;4.42;;;;;;;19.39;60.17;99237.58;1663899;85;21098;-43
2021/08/29 07:12:31;;;;;;;8.80;4.67;;;;;;;19.34;60.41;99225.70;1633896;87;21048;-42
2021/08/29 07:15:08;;;;;;;9.40;4.65;;;;;;;19.31;60.73;99226.55;1652171;83;21851;-43
2021/08/29 07:17:35;;;;;;;6.17;4.47;;;;;;;19.26;61.31;99225.66;1745857;80;21140;-43
2021/08/29 07:20:03;;;;;;;10.32;4.35;;;;;;;19.27;61.88;99228.56;1736310;81;22032;-43
2021/08/29 07:22:48;;;;;;;6.10;4.65;;;;;;;19.31;62.09;99216.15;1745400;80;21165;-42
2021/08/29 07:25:33;;;;;;;6.72;4.20;;;;;;;19.31;62.09;99211.44;1739404;80;21049;-42
2021/08/29 07:28:18;;;;;;;6.72;4.20;;;;;;;19.28;62.49;99208.13;1741469;82;20966;-43
2021/08/29 07:31:03;;;;;;;7.50;3.87;;;;;;;19.26;62.29;99201.52;1741620;80;20974;-42
2021/08/29 07:33:30;;;;;;;4.17;3.62;;;;;;;19.22;62.80;99202.19;1736167;81;21086;-43
2021/08/29 07:36:08;;;;;;;3.40;3.10;;;;;;;19.21;62.96;99196.51;1742084;80;21059;-43
2021/08/29 07:38:38;;;;;;;3.42;2.85;;;;;;;19.23;63.28;99201.75;1742328;81;21003;-43
2021/08/29 07:42:10;;;;;;;5.60;2.83;;;;;;;19.36;63.30;99192.30;1801452;79;22550;-42
2021/08/29 07:44:37;;;;;;;3.67;2.95;;;;;;;19.36;63.18;99205.45;1757483;80;20990;-42
2021/08/29 07:47:04;;;;;;;4.60;3.00;;;;;;;19.43;62.90;99196.27;1753134;80;21163;-42
2021/08/29 07:49:32;;;;;;;3.55;3.15;;;;;;;19.50;62.79;99198.92;1749329;80;21039;-42
2021/08/29 07:51:59;;;;;;;3.62;2.90;;;;;;;19.56;62.62;99198.58;1769359;81;20985;-42
2021/08/29 07:54:44;;;;;;;4.15;2.60;;;;;;;19.60;62.20;99188.31;1765374;81;20984;-42
2021/08/29 07:57:13;;;;;;;3.27;2.47;;;;;;;19.65;61.79;99185.66;1699224;81;21008;-42
2021/08/29 07:59:40;;;;;;;4.10;3.00;;;;;;;19.73;61.00;99187.05;1676926;83;21160;-42
2021/08/29 08:02:06;;;;;;;5.75;3.22;;;;;;;19.76;60.74;99183.44;1692068;84;20941;-42
2021/08/29 08:04:51;;;;;;;3.95;3.10;;;;;;;19.81;60.59;99185.70;1699477;82;20950;-42
2021/08/29 08:07:36;;;;;;;4.45;3.30;;;;;;;19.88;60.98;99182.20;1697287;83;21085;-42
2021/08/29 08:10:23;;;;;;;4.78;2.87;;;;;;;19.98;60.78;99183.17;1712152;83;20988;-42
2021/08/29 08:12:58;;;;;;;5.85;3.22;;;;;;;20.07;59.94;99177.86;1698268;83;21525;-42
2021/08/29 08:15:27;;;;;;;5.42;3.15;;;;;;;20.13;59.06;99178.13;1721947;82;20925;-42
2021/08/29 08:17:54;;;;;;;4.28;2.90;;;;;;;20.16;58.31;99168.41;1722907;82;21095;-42
2021/08/29 08:20:21;;;;;;;5.78;3.30;;;;;;;20.17;58.26;99161.70;1718108;83;21567;-42
2021/08/29 08:22:58;;;;;;;4.67;3.30;;;;;;;20.22;58.09;99150.78;1712870;83;21599;-42
2021/08/29 08:25:27;;;;;;;5.08;3.50;;;;;;;20.28;58.13;99146.33;1724992;82;21908;-42
2021/08/29 08:28:12;;;;;;;4.25;2.80;;;;;;;20.32;57.48;99140.93;1714965;82;20976;-42
2021/08/29 08:30:56;;;;;;;5.20;3.05;;;;;;;20.36;57.83;99139.46;1720677;83;20941;-42
2021/08/29 08:33:40;;;;;;;5.25;3.40;;;;;;;20.44;57.79;99134.55;1716429;83;21057;-43
2021/08/29 08:36:09;;;;;;;5.20;3.27;;;;;;;20.57;57.26;99132.06;1715612;83;21559;-42
2021/08/29 08:38:55;;;;;;;6.45;3.33;;;;;;;20.73;56.91;99131.24;1716473;82;21155;-42
2021/08/29 08:41:23;;;;;;;4.10;3.30;;;;;;;20.92;56.19;99125.43;1699924;83;21046;-42
2021/08/29 08:44:08;;;;;;;5.03;3.10;;;;;;;21.07;55.70;99132.11;1708571;82;21097;-42
2021/08/29 08:46:56;;;;;;;4.37;3.20;;;;;;;21.19;54.05;99113.51;1720805;83;20975;-42
2021/08/29 08:49:36;;;;;;;5.40;3.30;;;;;;;21.28;53.75;99113.64;1704523;83;21036;-42
2021/08/29 08:52:24;;;;;;;3.35;2.98;;;;;;;21.42;53.58;99116.59;1721386;82;21974;-43
2021/08/29 08:55:10;;;;;;;4.10;3.30;;;;;;;21.54;53.39;99106.95;1693781;84;20909;-42
2021/08/29 08:57:55;;;;;;;6.78;3.00;;;;;;;21.72;53.11;99107.81;1685482;83;20917;-42
2021/08/29 09:00:29;;;;;;;4.42;3.20;;;;;;;21.88;52.10;99095.91;1650799;85;21061;-42
2021/08/29 09:03:01;;;;;;;5.92;2.90;;;;;;;22.00;51.33;99095.92;1684786;83;21528;-42
2021/08/29 09:05:39;;;;;;;3.25;2.80;;;;;;;22.10;51.61;99098.17;1657101;84;21137;-42
2021/08/29 09:08:26;;;;;;;3.58;2.60;;;;;;;22.18;51.57;99093.19;1702755;83;21072;-41
2021/08/29 09:10:52;;;;;;;4.22;3.08;;;;;;;22.25;51.21;99079.16;1677678;82;20974;-41
2021/08/29 09:13:19;;;;;;;5.75;3.20;;;;;;;22.27;51.37;99085.02;1678879;83;20978;-41
2021/08/29 09:15:47;;;;;;;5.90;3.08;;;;;;;22.28;51.31;99085.16;1702517;84;21480;-41
2021/08/29 09:18:14;;;;;;;2.67;2.45;;;;;;;22.24;51.30;99084.52;1703513;83;21366;-41
2021/08/29 09:20:42;;;;;;;3.22;2.62;;;;;;;22.19;50.88;99085.07;1700458;84;21025;-41
2021/08/29 09:23:13;;;;;;;5.45;2.80;;;;;;;22.16;51.12;99079.06;1716483;83;21037;-41
2021/08/29 09:25:44;;;;;;;3.92;2.52;;;;;;;22.14;50.93;99078.73;1701650;82;21026;-41
2021/08/29 09:28:15;;;;;;;5.00;2.70;;;;;;;22.09;50.91;99073.94;1685913;82;21057;-42
2021/08/29 09:30:50;;;;;;;3.65;2.60;;;;;;;22.06;51.24;99067.93;1701804;84;21168;-42
2021/08/29 09:33:18;;;;;;;3.05;2.72;;;;;;;22.05;51.70;99067.76;1702457;84;20986;-41
2021/08/29 09:35:49;;;;;;;4.67;2.50;;;;;;;22.07;52.20;99066.69;1678272;84;21045;-41
2021/08/29 09:38:26;;;;;;;3.45;2.72;;;;;;;22.09;51.66;99062.11;1547075;92;21105;-42
2021/08/29 09:41:03;;;;;;;3.40;3.00;;;;;;;22.07;51.60;99061.17;1728391;80;21006;-42
2021/08/29 09:43:37;;;;;;;5.17;2.65;;;;;;;22.04;51.69;99058.53;1710920;82;21571;-42
2021/08/29 09:46:07;;;;;;;4.80;2.75;;;;;;;22.04;51.87;99056.55;1773228;80;26715;-41
2021/08/29 09:48:56;;;;;;;4.78;2.37;;;;;;;22.08;52.36;99048.91;1727533;80;20985;-41
2021/08/29 09:51:39;;;;;;;3.72;2.50;;;;;;;22.17;52.59;99051.62;1703746;82;21100;-42
2021/08/29 09:54:08;;;;;;;3.92;2.60;;;;;;;22.24;52.29;99037.56;1778111;80;21012;-42
2021/08/29 09:56:54;;;;;;;2.98;2.67;;;;;;;22.29;51.79;99028.11;1748194;80;21825;-42
2021/08/29 09:59:48;;;;;;;5.42;2.85;;;;;;;22.31;51.86;99029.05;1737595;80;20981;-42
2021/08/29 10:02:27;;;;;;;6.00;2.60;;;;;;;22.33;51.72;99022.46;1698951;82;21048;-42
2021/08/29 10:05:19;;;;;;;6.10;2.90;;;;;;;22.33;52.00;99019.09;1709675;83;21842;-42
2021/08/29 10:08:11;;;;;;;6.40;2.80;;;;;;;22.32;51.85;99006.50;1703269;82;21063;-42
2021/08/29 10:10:50;;;;;;;3.65;2.70;;;;;;;22.31;52.19;99004.20;1745030;80;20977;-42
2021/08/29 10:13:18;;;;;;;9.25;2.50;;;;;;;22.31;52.03;98993.16;1748632;81;20961;-42
2021/08/29 10:15:50;;;;;;;6.97;2.70;;;;;;;22.31;51.90;98991.77;1764953;80;20952;-42
2021/08/29 10:18:29;;;;;;;4.20;2.62;;;;;;;22.32;52.10;98993.30;1741138;80;21013;-42
2021/08/29 10:21:15;;;;;;;4.22;3.10;;;;;;;22.34;52.05;98988.88;1731423;82;21514;-42
2021/08/29 10:23:48;;;;;;;5.85;3.00;;;;;;;22.40;52.24;98984.94;1745172;80;21868;-42
2021/08/29 10:26:17;;;;;;;3.33;2.83;;;;;;;22.51;52.27;98979.82;1743983;80;21034;-42
2021/08/29 10:29:05;;;;;;;4.12;2.72;;;;;;;22.69;52.10;98974.42;1766751;80;20985;-42
2021/08/29 10:31:57;;;;;;;6.08;3.05;;;;;;;22.86;51.67;98970.86;1670030;85;21065;-42
2021/08/29 10:34:28;;;;;;;6.78;3.45;;;;;;;23.01;51.36;98973.86;1750321;80;21845;-42
2021/08/29 10:36:56;;;;;;;5.35;3.27;;;;;;;23.09;51.00;98976.53;1764278;80;21101;-42
2021/08/29 10:39:41;;;;;;;5.37;3.05;;;;;;;23.13;50.87;98977.94;1703185;83;21058;-42
2021/08/29 10:42:22;;;;;;;4.10;3.15;;;;;;;23.14;51.16;98970.42;1735179;82;21080;-42
2021/08/29 10:45:09;;;;;;;4.53;3.42;;;;;;;23.15;51.34;98965.02;1699969;82;21084;-42
2021/08/29 10:47:52;;;;;;;7.33;2.90;;;;;;;23.16;51.47;98965.19;1710698;82;21812;-42
2021/08/29 10:50:29;;;;;;;3.72;2.92;;;;;;;23.17;51.94;98963.97;1691605;82;21828;-42
2021/08/29 10:52:57;;;;;;;4.78;2.92;;;;;;;23.17;52.03;98963.97;1717426;82;21017;-42
2021/08/29 10:55:30;;;;;;;3.30;3.00;;;;;;;23.16;52.09;98974.86;1720332;83;21527;-42
2021/08/29 10:58:03;;;;;;;3.50;2.85;;;;;;;23.15;52.30;98983.00;1695345;83;21088;-42
2021/08/29 11:00:30;;;;;;;6.80;3.50;;;;;;;23.11;52.17;98992.81;1720519;82;21024;-42
2021/08/29 11:02:58;;;;;;;5.22;3.08;;;;;;;23.09;52.75;98998.66;1671280;82;21842;-42
2021/08/29 11:05:37;;;;;;;5.17;3.70;;;;;;;23.10;54.86;99000.17;1705056;82;21490;-42
2021/08/29 11:08:30;;;;;;;6.67;3.90;;;;;;;23.09;55.94;98986.21;1698174;82;20953;-41
2021/08/29 11:10:59;;;;;;;8.28;3.90;;;;;;;23.09;57.31;98964.09;1674072;85;21496;-41
2021/08/29 11:13:35;;;;;;;5.55;3.50;;;;;;;23.10;58.38;98961.46;1674062;85;21104;-42
2021/08/29 11:16:13;;;;;;;5.12;3.70;;;;;;;23.10;58.42;98957.31;1696713;82;21214;-41
2021/08/29 11:19:06;;;;;;;4.87;3.47;;;;;;;23.06;58.95;98960.22;1670680;84;21065;-41
2021/08/29 11:22:07;;;;;;;4.67;3.33;;;;;;;23.04;59.66;98962.69;1620649;88;21133;-41
2021/08/29 11:25:24;;;;;;;7.12;3.55;;;;;;;23.03;60.04;98961.14;1688291;84;21036;-41
2021/08/29 11:28:04;;;;;;;5.87;4.28;;;;;;;23.02;59.85;98960.20;1726742;82;21091;-41
2021/08/29 11:30:40;;;;;;;7.33;4.83;;;;;;;22.99;59.91;98955.59;1701507;82;21968;-42
2021/08/29 11:33:12;;;;;;;6.00;4.08;;;;;;;23.01;60.02;98951.74;1713095;83;20993;-42
2021/08/29 11:35:50;;;;;;;4.75;4.17;;;;;;;23.04;60.03;98945.33;1690012;83;21528;-42
2021/08/29 11:38:35;;;;;;;6.70;4.78;;;;;;;23.05;60.41;98946.84;1692432;83;21094;-42
2021/08/29 11:41:14;;;;;;;7.55;4.58;;;;;;;23.03;60.76;98943.78;1711854;82;21496;-42
2021/08/29 11:43:48;;;;;;;5.45;3.75;;;;;;;23.04;60.51;98940.56;1708595;83;20978;-41
2021/08/29 11:46:22;;;;;;;5.25;4.17;;;;;;;23.06;59.99;98947.00;1712413;83;20961;-41
2021/08/29 11:48:55;;;;;;;4.70;4.15;;;;;;;23.08;60.35;98944.57;1714791;82;21052;-42
2021/08/29 11:51:28;;;;;;;4.85;4.37;;;;;;;23.09;60.33;98936.44;1718313;83;21526;-41
2021/08/29 11:53:58;;;;;;;5.53;5.03;;;;;;;23.10;59.80;98930.44;1688106;83;21038;-41
2021/08/29 11:56:30;;;;;;;10.08;4.30;;;;;;;23.11;59.64;98921.53;1648862;85;21790;-42
2021/08/29 11:58:56;;;;;;;7.08;4.37;;;;;;;23.12;58.92;98916.16;1707168;82;21547;-41
2021/08/29 12:01:26;;;;;;;6.75;4.62;;;;;;;23.17;58.90;98910.81;1710043;83;21056;-41
2021/08/29 12:03:56;;;;;;;5.75;4.53;;;;;;;23.18;59.44;98904.06;1762237;80;21024;-41
2021/08/29 12:06:44;;;;;;;7.08;4.85;;;;;;;23.20;59.49;98902.20;1694718;83;20993;-41
2021/08/29 12:09:35;;;;;;;5.47;4.67;;;;;;;23.19;59.40;98901.44;1706364;83;21144;-41
2021/08/29 12:12:19;;;;;;;6.85;4.40;;;;;;;23.17;59.28;98901.75;1647478;86;21142;-42
2021/08/29 12:15:07;;;;;;;7.30;4.58;;;;;;;23.13;59.18;98899.73;1754928;80;21061;-42
2021/08/29 12:18:01;;;;;;;6.10;4.72;;;;;;;23.09;59.64;98899.11;1758287;80;21024;-41
2021/08/29 12:20:29;;;;;;;6.40;4.65;;;;;;;23.05;59.90;98892.92;1732812;82;21033;-41
2021/08/29 12:23:14;;;;;;;5.50;4.83;;;;;;;23.07;60.08;98889.88;1712036;83;21125;-41
2021/08/29 12:25:43;;;;;;;6.03;4.53;;;;;;;23.08;60.22;98896.19;1748293;80;20948;-41
2021/08/29 12:28:12;;;;;;;5.28;4.37;;;;;;;23.10;60.19;98913.07;1751635;82;21535;-41
2021/08/29 12:30:39;;;;;;;9.23;4.70;;;;;;;23.10;60.25;98919.37;1755302;80;21567;-41
2021/08/29 12:33:14;;;;;;;5.60;4.97;;;;;;;23.07;60.57;98923.67;1755133;80;21734;-41
2021/08/29 12:35:43;;;;;;;8.78;5.15;;;;;;;23.01;61.17;98953.89;1712318;83;21850;-41
2021/08/29 12:38:22;;;;;;;;;;;;;;;22.94;61.43;98974.31;1675157;85;21030;-41
2021/08/29 12:40:52;;;;;;;9.48;5.17;;;;;;;22.82;63.28;99026.88;1665880;83;20167;-41
2021/08/29 12:43:20;;;;;;;5.95;4.87;;;;;;;22.43;63.53;99040.66;1700081;83;21066;-41
2021/08/29 12:45:49;;;;;;;9.30;5.15;;;;;;;22.07;64.16;99056.28;1703494;83;21105;-41
2021/08/29 12:48:16;;;;;;;6.97;5.00;;;;;;;21.64;64.93;99060.34;1693949;83;21150;-41
2021/08/29 12:50:52;;;;;;;5.22;4.25;;;;;;;21.19;65.72;99068.80;1698858;83;21045;-41
2021/08/29 12:53:22;;;;;;;5.75;3.98;;;;;;;20.79;66.61;99073.81;1693672;84;21060;-41
2021/08/29 12:55:55;;;;;;;6.10;4.10;;;;;;;20.45;67.09;99063.91;1720489;82;21025;-41
2021/08/29 12:58:34;;;;;;;4.65;3.95;;;;;;;20.19;68.27;99073.95;1743850;80;21042;-41
2021/08/29 13:01:03;;;;;;;8.25;5.03;;;;;;;19.99;68.55;99067.01;1755240;80;21130;-41
2021/08/29 13:03:31;;;;;;;11.85;5.65;;;;;;;19.84;69.06;99059.09;1758572;80;20993;-41
2021/08/29 13:06:06;;;;;;;8.55;5.75;;;;;;;19.78;69.68;99058.64;1741927;82;21006;-41
2021/08/29 13:08:45;;;;;;;11.95;5.47;;;;;;;19.72;69.87;99069.38;1700120;82;20981;-41
2021/08/29 13:11:13;;;;;;;6.87;4.65;;;;;;;19.61;70.28;99057.83;1678350;84;21005;-41
2021/08/29 13:13:55;;;;;;;8.05;4.55;;;;;;;19.47;70.82;99057.55;1742524;82;21084;-42
2021/08/29 13:16:39;;;;;;;8.13;4.55;;;;;;;19.38;71.25;99062.05;1742771;82;21289;-41
2021/08/29 13:19:06;;;;;;;8.05;4.40;;;;;;;19.34;71.45;99058.61;1688485;84;21135;-41
2021/08/29 13:21:38;;;;;;;10.58;5.45;;;;;;;19.34;71.69;99059.39;1703686;84;21036;-41
2021/08/29 13:24:28;;;;;;;9.38;5.40;;;;;;;19.35;71.87;99060.95;1743233;82;21057;-41
2021/08/29 13:26:56;;;;;;;9.08;5.05;;;;;;;19.36;71.87;99052.88;1707274;84;21137;-41
2021/08/29 13:29:22;;;;;;;8.18;4.97;;;;;;;19.37;72.03;99057.75;1742530;80;20946;-41
2021/08/29 13:31:51;;;;;;;6.00;4.15;;;;;;;19.42;71.92;99052.53;1706745;83;21008;-41
2021/08/29 13:34:29;;;;;;;9.63;5.05;;;;;;;19.47;71.90;99058.93;1637559;84;21542;-41
2021/08/29 13:36:56;;;;;;;6.12;4.65;;;;;;;19.45;72.00;99060.57;1710479;83;21020;-41
2021/08/29 13:39:26;;;;;;;8.10;4.97;;;;;;;19.43;72.08;99058.80;1708183;83;21139;-41
2021/08/29 13:42:18;;;;;;;7.08;4.83;;;;;;;19.43;72.23;99048.59;1701151;83;20950;-41
2021/08/29 13:44:56;;;;;;;8.13;5.40;;;;;;;19.51;72.16;99040.97;1701036;83;21955;-41
2021/08/29 13:47:23;;;;;;;10.50;4.97;;;;;;;19.54;72.22;99027.77;1701365;83;20942;-41
2021/08/29 13:49:51;;;;;;;5.75;4.47;;;;;;;19.53;72.36;98988.49;1706953;83;21583;-41
2021/08/29 13:52:23;;;;;;;8.93;5.03;;;;;;;19.58;72.39;98969.33;1706872;83;21192;-41
2021/08/29 13:54:51;;;;;;;6.80;4.95;;;;;;;19.65;72.39;98964.27;1701957;83;21549;-41
2021/08/29 13:57:18;;;;;;;6.05;4.78;;;;;;;19.70;72.13;98954.13;1705366;83;21019;-41
2021/08/29 13:59:45;;;;;;;7.12;4.92;;;;;;;19.69;72.29;98942.95;1707748;82;21610;-41
2021/08/29 14:02:12;;;;;;;5.78;4.08;;;;;;;19.72;72.30;98942.08;1706824;83;21041;-41
2021/08/29 14:04:38;;;;;;;6.08;4.15;;;;;;;19.77;72.24;98935.47;1701943;82;21155;-41
2021/08/29 14:07:05;;;;;;;7.17;4.42;;;;;;;19.86;72.10;98947.22;1705953;83;21320;-41
2021/08/29 14:09:32;;;;;;;8.33;4.47;;;;;;;19.93;71.88;98936.05;1705664;83;21053;-41
2021/08/29 14:11:58;;;;;;;6.12;4.92;;;;;;;19.98;71.56;98921.00;1695520;82;21586;-41
2021/08/29 14:14:25;;;;;;;6.83;4.60;;;;;;;20.00;71.50;98926.83;1706052;83;21055;-41
2021/08/29 14:16:53;;;;;;;6.80;4.97;;;;;;;19.99;71.39;98927.45;1706882;82;21819;-41
2021/08/29 14:19:19;;;;;;;7.90;5.78;;;;;;;20.02;71.12;98925.80;1711113;83;21038;-41
2021/08/29 14:21:46;;;;;;;7.08;5.17;;;;;;;19.99;71.33;98931.58;1705701;83;21032;-41
2021/08/29 14:24:13;;;;;;;8.23;5.37;;;;;;;19.93;71.50;98938.20;1707079;82;21074;-41
2021/08/29 14:26:40;;;;;;;8.83;5.30;;;;;;;19.91;71.48;98937.08;1706986;83;21807;-41
2021/08/29 14:29:06;;;;;;;6.37;4.90;;;;;;;19.92;71.52;98937.25;1710756;83;21827;-41
2021/08/29 14:31:35;;;;;;;7.50;4.72;;;;;;;19.96;71.61;98940.68;1751037;82;21587;-42
2021/08/29 14:34:01;;;;;;;7.85;5.50;;;;;;;20.01;71.75;98929.15;1714876;83;20973;-41
2021/08/29 14:36:29;;;;;;;5.62;4.92;;;;;;;20.08;71.82;98934.48;1697938;83;20968;-41
2021/08/29 14:38:57;;;;;;;5.47;4.45;;;;;;;20.17;71.72;98941.52;1734540;80;21041;-41
2021/08/29 14:41:23;;;;;;;7.55;5.17;;;;;;;20.27;71.47;98936.33;1755325;80;21215;-42
2021/08/29 14:43:50;;;;;;;6.60;4.58;;;;;;;20.39;71.01;98937.59;1754116;80;21036;-41
2021/08/29 14:46:16;;;;;;;7.33;5.03;;;;;;;20.43;70.89;98937.52;1706657;82;21487;-41
2021/08/29 14:48:44;;;;;;;7.58;4.87;;;;;;;20.45;70.73;98939.21;1720446;83;21001;-41
2021/08/29 14:51:11;;;;;;;9.08;5.05;;;;;;;20.43;70.71;98940.27;1719559;83;21554;-41
2021/08/29 14:53:38;;;;;;;7.30;5.10;;;;;;;20.48;70.82;98934.23;1689190;83;21145;-41
2021/08/29 14:56:05;;;;;;;7.05;5.33;;;;;;;20.54;70.64;98932.46;1712380;83;21029;-41
2021/08/29 14:58:31;;;;;;;6.90;4.95;;;;;;;20.50;70.39;98917.42;1681917;85;22237;-41
2021/08/29 15:00:58;;;;;;;6.67;5.30;;;;;;;20.44;70.27;98913.66;1698025;83;21036;-41
2021/08/29 15:03:24;;;;;;;8.05;5.42;;;;;;;20.43;70.55;98910.73;1710681;83;21037;-41
2021/08/29 15:05:51;;;;;;;9.05;5.72;;;;;;;20.44;70.26;98912.28;1725475;83;21102;-42
2021/08/29 15:08:17;;;;;;;5.83;5.10;;;;;;;20.42;70.25;98923.58;1709309;82;20950;-41
2021/08/29 15:10:44;;;;;;;6.70;5.15;;;;;;;20.33;70.22;98920.08;1724230;82;21574;-42
2021/08/29 15:13:11;;;;;;;9.73;5.08;;;;;;;20.25;70.33;98921.44;1698408;82;20993;-41
2021/08/29 15:15:37;;;;;;;10.40;5.70;;;;;;;20.18;70.32;98922.42;1702410;84;21030;-41